Hlavní strana
METAR-TAF:

METAR-TAF

Letiště :

Kirkenes, Norsko

zeměpisná šířka: 69-44N, zeměpisná délka: 029-54E, výška: 9 m

Aktuální stav počasí

Zpráva byla vytvořena před 28 minutami, v 17:50 UTC
Jižní vítr 5 kt
Teplota -13°C
Vlhkost vzduchu 85%
Tlak 996 hPa
Viditelnost 10 km a více
Oblačno až skoro zataženo ve výšce 700 ft

METAR: ENKR 181750Z 17005KT 9999 BKN007 M13/M15 Q0996 RMK WIND 731FT 21005KT

Čas: 19:18 (18:18 UTC)

Předpověď počasí

Zpráva byla vytvořena před 1 hodinou a 18 minutami, v 17:00 UTC
Předpověď platná od 18 v 18 UTC do 19 v 03 UTC
Jižní vítr 8 kt
Viditelnost 10 km a více
Žádná oblačnost pod 1500 m, nevyskytují se cumulonimby.
Pravděpodobnost 40%
od 18 v 18 UTC do 19 v 03 UTC
Oblačno až skoro zataženo ve výšce 800 ft

TAF: ENKR 181700Z 1818/1903 18008KT CAVOK PROB40 1818/1903 BKN008

Stav a předpovědi počasí z více než 4 000 letišť (zprávy METAR a TAF).

Červené a žluté tečky na mapě představují dostupné meteorologické stanice.

Když kurzor umístíte na tečku, zobrazí se název stanice.

Pak kliknutím zobrazíte stav a předpověď počasí.

Chcete-li změnit mapu, kliknutím na zelené tlačítko se znaménkem +mapu přiblížíte, kliknutím na zelené tlačítko se znaménkem – mapu oddálíte a kliknutím na zelené šipky přejdete na sousední mapy.


METAR-TAF: